Seago Piraeus — OXVD2 — position and weather

sailwx.info

Track history (hours):
 
Tides and Currents Weather Stations Pressure Air Temp Water Temp Dewpoint Dewpoint Depression Visibility Wind Speed Wind Dir Waves Ship Positions

Seago Piraeus

Last reported at 2015-May-24 21:00 UTC. Time now 2015-May-25 05:30 UTC.
Position N 39°48' E 025°48'.

Length 294 m; draft 12.2 m.

Type: Ship (hazmat cat A). MMSI: 219117000.

Wind from 220 at 8 knots

Waves 0.5 meters (2 feet), 3 second period

Barometer 1009.0 mb
Air temperature 20.6 ° C
Visibility: greater than 10.8 NM
Dewpoint 18.2 ° C

Date/timePositionNaut miles runAvg speedWind from/ knotsBaromVisibWave heightAir tempDewpointWater temp
2015-May-24 21:00N 39°48' E 025°48'2 4.1 220 / 81009.010.8 0.520.618.2
2015-May-24 20:31N 39°48' E 025°50'7311.8
2015-May-24 14:21N 38°44' E 025°08'7313.6
2015-May-24 09:00N 37°42' E 024°18'26 8.9 200 / 61008.910.8 24.215.318.0
2015-May-24 06:05N 37°38' E 023°46'612.1
2015-May-24 05:33N 37°43' E 023°41'1212.2
2015-May-24 04:33N 37°54' E 023°36'3 2.7
2015-May-24 03:31N 37°57' E 023°36'0 0.0
2015-May-24 02:31N 37°57' E 023°36'0 0.0
2015-May-24 01:31N 37°57' E 023°36'0 0.0
2015-May-24 00:31N 37°57' E 023°36'0 0.0
2015-May-23 23:31N 37°57' E 023°36'0 0.0
2015-May-23 22:31N 37°57' E 023°36'0 0.0
2015-May-23 21:31N 37°57' E 023°36'0 0.0
2015-May-23 20:31N 37°57' E 023°36'2 2.4
2015-May-23 19:33N 37°55' E 023°37'7 7.3
2015-May-23 18:33N 37°49' E 023°41'1313.0
2015-May-23 17:33N 37°36' E 023°45'1414.0
2015-May-23 16:33N 37°22' E 023°41'1414.1
2015-May-23 15:33N 37°08' E 023°38'1413.8
2015-May-23 14:33N 36°55' E 023°33'1413.9
2015-May-23 13:33N 36°42' E 023°26'1413.5
2015-May-23 12:33N 36°30' E 023°19'1311.4
2015-May-23 11:27N 36°23' E 023°06'39113.4
2015-May-22 06:19N 36°29' E 015°00'1113.5
2015-May-22 05:30N 36°29' E 014°46'1313.6
2015-May-22 04:33N 36°31' E 014°31'1413.9
2015-May-22 03:33N 36°36' E 014°14'1413.8
2015-May-22 02:33N 36°40' E 013°58'1413.6
2015-May-22 01:33N 36°43' E 013°42'2013.9
2015-May-22 00:09N 36°49' E 013°18'813.6
2015-May-21 23:31N 36°51' E 013°08'64613.6
2015-May-20 00:09N 39°24' W 000°09'711.7
2015-May-19 23:33N 39°26' W 000°18'1 0.8
2015-May-19 22:33N 39°26' W 000°19'0 0.0
2015-May-19 21:31N 39°26' W 000°19'0 0.0
2015-May-19 20:28N 39°26' W 000°19'0 0.0
2015-May-19 19:31N 39°26' W 000°19'0 0.0
2015-May-19 18:28N 39°26' W 000°19'0 0.0
2015-May-19 17:31N 39°26' W 000°19'0 0.0
2015-May-19 16:31N 39°26' W 000°19'0 0.0
2015-May-19 15:31N 39°26' W 000°19'0 0.0
2015-May-19 14:31N 39°26' W 000°19'0 0.0
2015-May-19 13:31N 39°26' W 000°19'0 0.0
2015-May-19 12:31N 39°26' W 000°19'0 0.0
2015-May-19 11:28N 39°26' W 000°19'0 0.3
2015-May-19 10:33N 39°26' W 000°19'8 8.1
2015-May-19 09:33N 39°22' W 000°10'5911.6
2015-May-19 04:29N 38°26' E 000°14'1313.9
2015-May-19 03:33N 38°16' E 000°04'1414.0
2015-May-19 02:33N 38°04' W 000°05'1414.2
2015-May-19 01:33N 37°52' W 000°15'1414.3
2015-May-19 00:33N 37°40' W 000°25'1514.8
2015-May-18 23:33N 37°29' W 000°37'1514.8
2015-May-18 22:33N 37°19' W 000°51'1514.5
2015-May-18 21:33N 37°09' W 001°05'1714.3
2015-May-18 20:22N 36°58' W 001°21'1214.1
2015-May-18 19:32N 36°50' W 001°32'1413.9
2015-May-18 18:31N 36°41' W 001°45'1513.8
2015-May-18 17:27N 36°30' W 001°57'1213.1
2015-May-18 16:33N 36°23' W 002°10'1513.1
2015-May-18 15:26N 36°20' W 002°27'1213.3
2015-May-18 14:34N 36°18' W 002°41'1413.4
2015-May-18 13:33N 36°16' W 002°58'1413.9
2015-May-18 12:33N 36°14' W 003°15'9114.3
2015-May-18 06:11N 36°01' W 005°07'1015.3
2015-May-18 05:34N 36°00' W 005°19'3315.3
2015-May-18 03:26N 35°53' W 005°58'14913.4
2015-May-17 16:21N 36°29' W 008°56'1114.1
2015-May-17 15:32N 36°32' W 009°10'1313.7
2015-May-17 14:33N 36°39' W 009°24'2813.7
2015-May-17 12:30N 37°05' W 009°38'1414.5
2015-May-17 11:33N 37°19' W 009°41'1514.6
2015-May-17 10:33N 37°33' W 009°45'1514.6
2015-May-17 09:33N 37°47' W 009°49'1414.5
2015-May-17 08:33N 38°02' W 009°53'1414.4
2015-May-17 07:33N 38°16' W 009°57'1414.5
2015-May-17 06:33N 38°29' W 010°02'1414.0
2015-May-17 05:33N 38°43' W 010°06'1514.5
2015-May-17 04:33N 38°58' W 010°06'1414.3
2015-May-17 03:33N 39°12' W 010°07'1414.2
2015-May-17 02:33N 39°26' W 010°06'1514.3
2015-May-17 01:28N 39°41' W 010°06'2713.8
2015-May-16 23:33N 40°08' W 010°06'19613.5
2015-May-16 09:00N 43°24' W 009°54'47613.8 040 / 161033.3 5.4 0.516.013.510.0
2015-May-14 22:28N 49°54' W 003°16'  
Track history (hours):
 
Tides and Currents Weather Stations Pressure Air Temp Water Temp Dewpoint Dewpoint Depression Visibility Wind Speed Wind Dir Waves Ship Positions

Seago Piraeus

Last reported at 2015-May-24 21:00 UTC. Time now 2015-May-25 05:30 UTC.
Position N 39°48' E 025°48'.

Length 294 m; draft 12.2 m.

Type: Ship (hazmat cat A). MMSI: 219117000.

Wind from 220 at 8 knots

Waves 0.5 meters (2 feet), 3 second period

Barometer 1009.0 mb
Air temperature 20.6 ° C
Visibility: greater than 10.8 NM
Dewpoint 18.2 ° C

Date/timePositionNaut miles runAvg speedWind from/ knotsBaromVisibWave heightAir tempDewpointWater temp
2015-May-24 21:00N 39°48' E 025°48'2 4.1 220 / 81009.010.8 0.520.618.2
2015-May-24 20:31N 39°48' E 025°50'7311.8
2015-May-24 14:21N 38°44' E 025°08'7313.6
2015-May-24 09:00N 37°42' E 024°18'26 8.9 200 / 61008.910.8 24.215.318.0
2015-May-24 06:05N 37°38' E 023°46'612.1
2015-May-24 05:33N 37°43' E 023°41'1212.2
2015-May-24 04:33N 37°54' E 023°36'3 2.7
2015-May-24 03:31N 37°57' E 023°36'0 0.0
2015-May-24 02:31N 37°57' E 023°36'0 0.0
2015-May-24 01:31N 37°57' E 023°36'0 0.0
2015-May-24 00:31N 37°57' E 023°36'0 0.0
2015-May-23 23:31N 37°57' E 023°36'0 0.0
2015-May-23 22:31N 37°57' E 023°36'0 0.0
2015-May-23 21:31N 37°57' E 023°36'0 0.0
2015-May-23 20:31N 37°57' E 023°36'2 2.4
2015-May-23 19:33N 37°55' E 023°37'7 7.3
2015-May-23 18:33N 37°49' E 023°41'1313.0
2015-May-23 17:33N 37°36' E 023°45'1414.0
2015-May-23 16:33N 37°22' E 023°41'1414.1
2015-May-23 15:33N 37°08' E 023°38'1413.8
2015-May-23 14:33N 36°55' E 023°33'1413.9
2015-May-23 13:33N 36°42' E 023°26'1413.5
2015-May-23 12:33N 36°30' E 023°19'1311.4
2015-May-23 11:27N 36°23' E 023°06'39113.4
2015-May-22 06:19N 36°29' E 015°00'1113.5
2015-May-22 05:30N 36°29' E 014°46'1313.6
2015-May-22 04:33N 36°31' E 014°31'1413.9
2015-May-22 03:33N 36°36' E 014°14'1413.8
2015-May-22 02:33N 36°40' E 013°58'1413.6
2015-May-22 01:33N 36°43' E 013°42'2013.9
2015-May-22 00:09N 36°49' E 013°18'813.6
2015-May-21 23:31N 36°51' E 013°08'64613.6
2015-May-20 00:09N 39°24' W 000°09'711.7
2015-May-19 23:33N 39°26' W 000°18'1 0.8
2015-May-19 22:33N 39°26' W 000°19'0 0.0
2015-May-19 21:31N 39°26' W 000°19'0 0.0
2015-May-19 20:28N 39°26' W 000°19'0 0.0
2015-May-19 19:31N 39°26' W 000°19'0 0.0
2015-May-19 18:28N 39°26' W 000°19'0 0.0
2015-May-19 17:31N 39°26' W 000°19'0 0.0
2015-May-19 16:31N 39°26' W 000°19'0 0.0
2015-May-19 15:31N 39°26' W 000°19'0 0.0
2015-May-19 14:31N 39°26' W 000°19'0 0.0
2015-May-19 13:31N 39°26' W 000°19'0 0.0
2015-May-19 12:31N 39°26' W 000°19'0 0.0
2015-May-19 11:28N 39°26' W 000°19'0 0.3
2015-May-19 10:33N 39°26' W 000°19'8 8.1
2015-May-19 09:33N 39°22' W 000°10'5911.6
2015-May-19 04:29N 38°26' E 000°14'1313.9
2015-May-19 03:33N 38°16' E 000°04'1414.0
2015-May-19 02:33N 38°04' W 000°05'1414.2
2015-May-19 01:33N 37°52' W 000°15'1414.3
2015-May-19 00:33N 37°40' W 000°25'1514.8
2015-May-18 23:33N 37°29' W 000°37'1514.8
2015-May-18 22:33N 37°19' W 000°51'1514.5
2015-May-18 21:33N 37°09' W 001°05'1714.3
2015-May-18 20:22N 36°58' W 001°21'1214.1
2015-May-18 19:32N 36°50' W 001°32'1413.9
2015-May-18 18:31N 36°41' W 001°45'1513.8
2015-May-18 17:27N 36°30' W 001°57'1213.1
2015-May-18 16:33N 36°23' W 002°10'1513.1
2015-May-18 15:26N 36°20' W 002°27'1213.3
2015-May-18 14:34N 36°18' W 002°41'1413.4
2015-May-18 13:33N 36°16' W 002°58'1413.9
2015-May-18 12:33N 36°14' W 003°15'9114.3
2015-May-18 06:11N 36°01' W 005°07'1015.3
2015-May-18 05:34N 36°00' W 005°19'3315.3
2015-May-18 03:26N 35°53' W 005°58'14913.4
2015-May-17 16:21N 36°29' W 008°56'1114.1
2015-May-17 15:32N 36°32' W 009°10'1313.7
2015-May-17 14:33N 36°39' W 009°24'2813.7
2015-May-17 12:30N 37°05' W 009°38'1414.5
2015-May-17 11:33N 37°19' W 009°41'1514.6
2015-May-17 10:33N 37°33' W 009°45'1514.6
2015-May-17 09:33N 37°47' W 009°49'1414.5
2015-May-17 08:33N 38°02' W 009°53'1414.4
2015-May-17 07:33N 38°16' W 009°57'1414.5
2015-May-17 06:33N 38°29' W 010°02'1414.0
2015-May-17 05:33N 38°43' W 010°06'1514.5
2015-May-17 04:33N 38°58' W 010°06'1414.3
2015-May-17 03:33N 39°12' W 010°07'1414.2
2015-May-17 02:33N 39°26' W 010°06'1514.3
2015-May-17 01:28N 39°41' W 010°06'2713.8
2015-May-16 23:33N 40°08' W 010°06'19613.5
2015-May-16 09:00N 43°24' W 009°54'47613.8 040 / 161033.3 5.4 0.516.013.510.0
2015-May-14 22:28N 49°54' W 003°16'  

Dump ship's entire track history